createdAt,value
2022-12-18T00:01:22.781Z,58.40
2022-12-18T00:03:50.275Z,50.90
2022-12-18T00:06:17.625Z,36.50
2022-12-18T00:08:45.621Z,53.88
2022-12-18T00:11:14.751Z,33.45
2022-12-18T00:13:42.497Z,35.50
2022-12-18T00:16:15.453Z,34.55
2022-12-18T00:18:42.610Z,43.95
2022-12-18T00:21:11.500Z,40.58
2022-12-18T00:23:39.429Z,34.00
2022-12-18T00:26:08.633Z,41.35
2022-12-18T00:28:35.341Z,66.47
2022-12-18T00:31:07.164Z,39.63
2022-12-18T00:33:34.297Z,48.08
2022-12-18T00:36:13.053Z,40.55
2022-12-18T00:38:39.883Z,38.17
2022-12-18T00:41:08.717Z,44.15
2022-12-18T00:43:36.436Z,46.45
2022-12-18T00:46:03.462Z,40.65
2022-12-18T00:48:30.542Z,40.67
2022-12-18T00:50:57.318Z,39.85
2022-12-18T00:53:24.101Z,51.75
2022-12-18T00:55:50.757Z,38.63
2022-12-18T00:58:17.976Z,68.47
2022-12-18T01:00:45.159Z,44.00
2022-12-18T01:03:15.377Z,48.63
2022-12-18T01:05:42.963Z,38.55
2022-12-18T01:08:09.726Z,37.85
2022-12-18T01:10:36.465Z,40.00
2022-12-18T01:13:03.229Z,45.35
2022-12-18T01:15:30.051Z,38.13
2022-12-18T01:17:56.765Z,69.75
2022-12-18T01:20:23.524Z,37.22
2022-12-18T01:22:50.353Z,48.92
2022-12-18T01:25:17.087Z,36.72
2022-12-18T01:27:43.872Z,42.80
2022-12-18T01:30:11.329Z,39.13
2022-12-18T01:32:38.052Z,36.75
2022-12-18T01:35:05.516Z,37.88
2022-12-18T01:37:32.250Z,40.90
2022-12-18T01:39:58.997Z,33.47
2022-12-18T01:42:26.742Z,35.90
2022-12-18T01:45:24.882Z,36.10
2022-12-18T01:48:00.473Z,33.20
2022-12-18T01:50:41.983Z,36.53
2022-12-18T01:53:14.948Z,33.67
2022-12-18T01:55:44.702Z,32.13
2022-12-18T01:58:11.469Z,32.47
2022-12-18T02:03:19.513Z,33.95
2022-12-18T02:05:51.845Z,40.45
2022-12-18T02:08:23.837Z,33.72
2022-12-18T02:11:16.938Z,36.90
2022-12-18T02:13:54.756Z,27.98
2022-12-18T02:16:57.133Z,28.88
2022-12-18T02:19:52.074Z,34.40
2022-12-18T02:22:57.008Z,37.58
2022-12-18T02:26:21.899Z,38.38
2022-12-18T02:29:07.242Z,31.40
2022-12-18T02:31:39.234Z,35.83
2022-12-18T02:34:08.038Z,33.67
2022-12-18T02:36:36.640Z,34.05
2022-12-18T02:39:04.029Z,33.08
2022-12-18T02:41:31.164Z,32.75
2022-12-18T02:44:03.180Z,32.70
2022-12-18T02:46:36.201Z,32.50
2022-12-18T02:49:11.215Z,33.85
2022-12-18T02:52:22.309Z,35.58
2022-12-18T02:54:53.281Z,32.13
2022-12-18T02:57:46.177Z,30.20
2022-12-18T03:00:18.090Z,37.70
2022-12-18T03:02:54.793Z,35.45
2022-12-18T03:05:24.399Z,34.58
2022-12-18T03:07:58.418Z,34.20
2022-12-18T03:10:31.431Z,30.02
2022-12-18T03:13:10.933Z,35.92
2022-12-18T03:15:40.513Z,28.67
2022-12-18T03:18:15.075Z,26.40
2022-12-18T03:20:43.831Z,27.30
2022-12-18T03:23:14.215Z,22.42
2022-12-18T03:25:43.867Z,24.30
2022-12-18T03:28:14.506Z,25.50
2022-12-18T03:30:43.066Z,25.73
2022-12-18T03:33:15.519Z,21.73
2022-12-18T03:35:44.006Z,23.17
2022-12-18T03:38:11.518Z,26.05
2022-12-18T03:41:10.423Z,23.40
2022-12-18T03:44:06.321Z,29.67
2022-12-18T03:46:54.511Z,24.55
2022-12-18T03:49:40.033Z,20.13
2022-12-18T03:52:22.371Z,22.75
2022-12-18T03:54:49.517Z,31.23
2022-12-18T03:57:22.633Z,23.63
2022-12-18T03:59:53.365Z,26.67
2022-12-18T04:02:20.761Z,42.38
2022-12-18T04:04:48.116Z,33.78
2022-12-18T04:07:16.114Z,25.60
2022-12-18T04:09:43.330Z,31.25
2022-12-18T04:12:10.304Z,34.28
2022-12-18T04:14:37.288Z,29.98
2022-12-18T04:17:04.803Z,27.50
2022-12-18T04:19:31.825Z,31.80
2022-12-18T04:21:58.641Z,41.05
2022-12-18T04:24:25.535Z,39.00
2022-12-18T04:26:52.312Z,35.47
2022-12-18T04:29:19.070Z,36.65
2022-12-18T04:31:45.819Z,38.22
2022-12-18T04:34:12.657Z,34.63
2022-12-18T04:36:39.529Z,29.83
2022-12-18T04:39:06.318Z,37.75
2022-12-18T04:41:33.158Z,33.92
2022-12-18T04:43:59.928Z,42.63
2022-12-18T04:46:26.670Z,36.45
2022-12-18T04:48:53.460Z,33.15
2022-12-18T04:51:26.195Z,33.80
2022-12-18T04:53:53.887Z,36.75
2022-12-18T04:56:20.778Z,35.17
2022-12-18T04:58:47.533Z,35.35
2022-12-18T05:01:16.120Z,31.25
2022-12-18T05:03:43.676Z,26.40
2022-12-18T05:06:10.959Z,36.58
2022-12-18T05:08:37.685Z,33.08
2022-12-18T05:11:10.016Z,28.52
2022-12-18T05:13:39.507Z,24.15
2022-12-18T05:16:07.442Z,25.10
2022-12-18T05:18:34.395Z,19.30
2022-12-18T05:21:01.466Z,23.10
2022-12-18T05:23:28.507Z,22.90
2022-12-18T05:25:57.642Z,22.83
2022-12-18T05:28:25.497Z,26.52
2022-12-18T05:30:54.079Z,28.88
2022-12-18T05:33:22.761Z,23.45
2022-12-18T05:35:56.690Z,21.60
2022-12-18T05:38:24.285Z,24.48
2022-12-18T05:40:52.028Z,23.20
2022-12-18T05:43:21.635Z,21.65
2022-12-18T05:45:49.107Z,20.23
2022-12-18T05:48:16.212Z,17.10
2022-12-18T05:50:46.625Z,23.25
2022-12-18T05:53:14.974Z,17.85
2022-12-18T05:55:42.617Z,26.65
2022-12-18T05:58:11.401Z,24.42
2022-12-18T06:00:41.099Z,25.42
2022-12-18T06:03:09.980Z,21.95
2022-12-18T06:05:45.372Z,21.33
2022-12-18T06:08:13.309Z,24.33
2022-12-18T06:10:40.735Z,18.92
2022-12-18T06:13:08.577Z,24.02
2022-12-18T06:15:37.999Z,22.00
2022-12-18T06:18:04.901Z,19.15
2022-12-18T06:20:33.592Z,25.42
2022-12-18T06:23:01.070Z,20.95
2022-12-18T06:25:27.882Z,18.02
2022-12-18T06:27:55.035Z,16.83
2022-12-18T06:30:22.092Z,18.67
2022-12-18T06:32:56.602Z,29.95
2022-12-18T06:35:24.170Z,21.30
2022-12-18T06:37:51.060Z,20.52
2022-12-18T06:40:18.143Z,27.75
2022-12-18T06:42:44.899Z,22.70
2022-12-18T06:45:12.614Z,19.95
2022-12-18T06:47:39.409Z,20.90
2022-12-18T06:50:06.899Z,21.45
2022-12-18T06:52:34.193Z,19.02
2022-12-18T06:55:01.213Z,23.33
2022-12-18T06:57:28.033Z,22.77
2022-12-18T06:59:54.900Z,19.33
2022-12-18T07:02:21.931Z,20.25
2022-12-18T07:04:51.859Z,18.65
2022-12-18T07:07:18.828Z,22.40
2022-12-18T07:09:45.835Z,26.00
2022-12-18T07:12:12.788Z,19.77
2022-12-18T07:14:39.578Z,20.77
2022-12-18T07:17:06.674Z,17.95
2022-12-18T07:19:33.800Z,23.40
2022-12-18T07:22:00.875Z,21.05
2022-12-18T07:24:27.649Z,18.75
2022-12-18T07:26:54.479Z,18.13
2022-12-18T07:29:21.248Z,26.15
2022-12-18T07:31:48.163Z,18.40
2022-12-18T07:34:16.332Z,16.55
2022-12-18T07:36:43.372Z,14.07
2022-12-18T07:39:12.292Z,19.85
2022-12-18T07:41:43.743Z,20.85
2022-12-18T07:44:13.924Z,21.25
2022-12-18T07:46:41.257Z,27.08
2022-12-18T07:49:08.261Z,36.85
2022-12-18T07:51:35.119Z,40.97
2022-12-18T07:54:02.108Z,37.55
2022-12-18T07:56:31.225Z,34.20
2022-12-18T07:58:58.758Z,29.27
2022-12-18T08:01:25.816Z,34.33
2022-12-18T08:03:52.818Z,32.88
2022-12-18T08:06:21.784Z,29.90
2022-12-18T08:08:52.689Z,27.30
2022-12-18T08:11:19.486Z,30.20
2022-12-18T08:13:46.534Z,34.35
2022-12-18T08:16:13.314Z,34.75
2022-12-18T08:18:40.045Z,27.98
2022-12-18T08:21:26.214Z,24.90
2022-12-18T08:23:54.747Z,25.45
2022-12-18T08:26:21.943Z,23.30
2022-12-18T08:28:49.380Z,28.48
2022-12-18T08:31:17.285Z,24.27
2022-12-18T08:33:44.481Z,34.53
2022-12-18T08:36:11.799Z,29.48
2022-12-18T08:38:38.839Z,23.98
2022-12-18T08:41:07.916Z,27.52
2022-12-18T08:43:53.265Z,28.92
2022-12-18T08:46:20.990Z,27.70
2022-12-18T08:48:48.233Z,33.60
2022-12-18T08:51:17.353Z,39.20
2022-12-18T08:53:45.615Z,33.47
2022-12-18T08:56:12.882Z,42.53
2022-12-18T08:58:40.131Z,37.92
2022-12-18T09:01:10.440Z,28.13
2022-12-18T09:03:37.768Z,25.77
2022-12-18T09:06:05.208Z,33.17
2022-12-18T09:08:31.982Z,33.78
2022-12-18T09:10:58.788Z,29.35
2022-12-18T09:13:25.737Z,31.88
2022-12-18T09:15:54.320Z,27.45
2022-12-18T09:18:22.255Z,27.17
2022-12-18T09:20:49.108Z,29.48
2022-12-18T09:23:15.866Z,29.88
2022-12-18T09:25:42.750Z,32.92
2022-12-18T09:28:14.774Z,38.00
2022-12-18T09:30:44.605Z,31.08
2022-12-18T09:33:11.667Z,27.52
2022-12-18T09:35:39.989Z,28.23
2022-12-18T09:38:07.626Z,32.55
2022-12-18T09:40:41.790Z,31.80
2022-12-18T09:43:21.690Z,43.80
2022-12-18T09:45:53.301Z,50.45
2022-12-18T09:48:32.994Z,38.55
2022-12-18T09:51:04.017Z,38.65
2022-12-18T09:53:34.526Z,38.03
2022-12-18T09:56:03.456Z,45.30
2022-12-18T09:58:36.269Z,50.35
2022-12-18T10:01:03.234Z,41.23
2022-12-18T10:03:30.003Z,43.08
2022-12-18T10:06:13.235Z,46.25
2022-12-18T10:09:25.337Z,45.80
2022-12-18T10:12:04.785Z,42.95
2022-12-18T10:15:06.263Z,50.95
2022-12-18T10:18:29.446Z,56.90
2022-12-18T10:21:01.544Z,48.00
2022-12-18T10:23:35.153Z,50.58
2022-12-18T10:28:36.687Z,41.40
2022-12-18T10:31:03.635Z,36.22
2022-12-18T10:33:32.822Z,38.65
2022-12-18T10:36:00.223Z,37.33
2022-12-18T10:38:31.670Z,29.17
2022-12-18T10:41:06.945Z,24.85
2022-12-18T10:43:38.596Z,28.98
2022-12-18T10:46:16.078Z,26.60
2022-12-18T10:48:55.477Z,33.95
2022-12-18T10:51:34.803Z,77.65
2022-12-18T10:54:07.129Z,37.05
2022-12-18T10:56:37.947Z,30.30
2022-12-18T10:59:07.775Z,25.92
2022-12-18T11:01:58.972Z,26.50
2022-12-18T11:04:28.567Z,40.53
2022-12-18T11:07:04.436Z,52.00
2022-12-18T11:09:36.818Z,33.20
2022-12-18T11:12:07.336Z,25.20
2022-12-18T11:14:35.800Z,29.75
2022-12-18T11:17:24.752Z,31.38
2022-12-18T11:19:59.910Z,34.28
2022-12-18T11:22:31.056Z,34.08
2022-12-18T11:28:29.774Z,33.25
2022-12-18T11:31:18.495Z,28.98
2022-12-18T11:34:26.880Z,26.25
2022-12-18T11:36:43.854Z,26.70
2022-12-18T11:39:17.651Z,28.27
2022-12-18T11:42:13.079Z,26.42
2022-12-18T11:45:00.255Z,68.55
2022-12-18T11:48:00.586Z,30.85
2022-12-18T11:50:35.370Z,26.63
2022-12-18T11:53:06.174Z,22.85
2022-12-18T11:55:53.697Z,21.90
2022-12-18T11:58:52.061Z,19.35
2022-12-18T12:01:26.336Z,57.13
2022-12-18T12:04:16.505Z,36.95
2022-12-18T12:07:18.923Z,41.83
2022-12-18T12:10:07.609Z,20.73
2022-12-18T12:13:14.908Z,57.08
2022-12-18T12:16:20.379Z,24.75
2022-12-18T12:19:05.535Z,29.45
2022-12-18T12:21:42.295Z,20.90
2022-12-18T12:24:44.547Z,25.92
2022-12-18T12:27:46.790Z,25.92
2022-12-18T12:30:27.697Z,38.72
2022-12-18T12:33:17.682Z,38.88
2022-12-18T12:36:02.652Z,48.83
2022-12-18T12:38:53.509Z,66.80
2022-12-18T12:41:42.187Z,51.05
2022-12-18T12:44:14.219Z,45.90
2022-12-18T12:46:43.065Z,50.67
2022-12-18T12:49:18.883Z,31.88
2022-12-18T12:51:49.529Z,39.03
2022-12-18T12:54:23.825Z,27.00
2022-12-18T12:57:22.637Z,26.67
2022-12-18T13:00:09.845Z,21.25
2022-12-18T13:02:43.751Z,24.17
2022-12-18T13:05:13.244Z,24.02
2022-12-18T13:07:49.082Z,25.20
2022-12-18T13:10:41.827Z,32.85
2022-12-18T13:13:13.586Z,24.30
2022-12-18T13:15:52.470Z,15.23
2022-12-18T13:18:23.639Z,14.02
2022-12-18T13:21:02.904Z,15.23
2022-12-18T13:23:39.924Z,26.25
2022-12-18T13:26:28.850Z,22.33
2022-12-18T13:28:57.658Z,21.65
2022-12-18T13:32:03.079Z,21.48
2022-12-18T13:34:32.410Z,21.27
2022-12-18T13:37:54.244Z,19.75
2022-12-18T13:40:42.688Z,15.50
2022-12-18T13:43:41.529Z,15.82
2022-12-18T13:46:32.218Z,12.43
2022-12-18T13:49:03.381Z,14.50
2022-12-18T13:51:32.140Z,13.25
2022-12-18T13:54:04.464Z,15.80
2022-12-18T13:56:33.746Z,20.90
2022-12-18T13:59:18.595Z,15.07
2022-12-18T14:01:56.274Z,11.70
2022-12-18T14:04:35.808Z,14.65
2022-12-18T14:07:13.626Z,12.48
2022-12-18T14:09:47.627Z,11.02
2022-12-18T14:12:35.915Z,13.38
2022-12-18T14:15:03.159Z,13.05
2022-12-18T14:17:30.286Z,12.60
2022-12-18T14:19:57.643Z,14.52
2022-12-18T14:22:31.346Z,11.25
2022-12-18T14:25:21.124Z,12.88
2022-12-18T14:28:19.716Z,12.63
2022-12-18T14:30:47.523Z,14.38
2022-12-18T14:33:15.627Z,11.38
2022-12-18T14:35:45.063Z,12.15
2022-12-18T14:38:23.466Z,12.88
2022-12-18T14:41:01.757Z,11.40
2022-12-18T14:43:30.516Z,12.77
2022-12-18T14:45:57.773Z,14.57
2022-12-18T14:48:35.404Z,14.40
2022-12-18T14:51:08.096Z,16.52
2022-12-18T14:53:38.181Z,17.83
2022-12-18T14:56:34.219Z,13.23
2022-12-18T14:59:04.595Z,13.73
2022-12-18T15:01:37.066Z,14.85
2022-12-18T15:04:05.330Z,18.77
2022-12-18T15:06:38.328Z,16.92
2022-12-18T15:09:22.577Z,18.88
2022-12-18T15:14:42.203Z,13.13
2022-12-18T15:17:20.445Z,16.25
2022-12-18T15:19:48.637Z,16.02
2022-12-18T15:22:22.769Z,17.05
2022-12-18T15:24:50.329Z,15.65
2022-12-18T15:27:25.889Z,16.17
2022-12-18T15:30:11.831Z,16.40
2022-12-18T15:32:40.221Z,17.00
2022-12-18T15:35:26.361Z,12.93
2022-12-18T15:37:53.599Z,15.43
2022-12-18T15:40:22.929Z,19.13
2022-12-18T15:43:08.444Z,16.75
2022-12-18T15:45:35.239Z,17.85
2022-12-18T15:48:02.142Z,15.77
2022-12-18T15:50:29.521Z,15.63
2022-12-18T15:52:57.700Z,17.55
2022-12-18T15:55:44.309Z,15.05
2022-12-18T15:58:12.847Z,17.13
2022-12-18T16:00:41.463Z,15.32
2022-12-18T16:03:10.500Z,17.55
2022-12-18T16:05:41.068Z,21.02
2022-12-18T16:08:08.092Z,18.48
2022-12-18T16:10:35.920Z,15.85
2022-12-18T16:13:02.767Z,17.15
2022-12-18T16:15:29.655Z,19.65
2022-12-18T16:17:56.460Z,19.98
2022-12-18T16:20:23.852Z,17.05
2022-12-18T16:22:51.207Z,16.73
2022-12-18T16:25:23.884Z,17.60
2022-12-18T16:27:51.112Z,17.70
2022-12-18T16:30:21.828Z,18.38
2022-12-18T16:32:48.650Z,20.98
2022-12-18T16:35:17.341Z,17.17
2022-12-18T16:37:44.705Z,16.67
2022-12-18T16:40:14.197Z,16.13
2022-12-18T16:42:42.955Z,16.90
2022-12-18T16:45:12.613Z,18.70
2022-12-18T16:47:39.443Z,19.15
2022-12-18T16:50:07.272Z,17.60
2022-12-18T16:52:35.058Z,19.13
2022-12-18T16:55:05.392Z,15.13
2022-12-18T16:57:32.162Z,17.08
2022-12-18T17:00:04.670Z,15.02
2022-12-18T17:02:32.699Z,17.88
2022-12-18T17:05:00.279Z,19.40
2022-12-18T17:07:28.604Z,18.27
2022-12-18T17:09:56.215Z,18.13
2022-12-18T17:12:23.843Z,19.20
2022-12-18T17:14:50.700Z,23.10
2022-12-18T17:17:22.641Z,19.52
2022-12-18T17:19:50.831Z,20.00
2022-12-18T17:22:17.532Z,16.95
2022-12-18T17:24:44.350Z,21.42
2022-12-18T17:27:11.150Z,20.10
2022-12-18T17:29:41.335Z,23.50
2022-12-18T17:32:12.061Z,25.08
2022-12-18T17:34:39.004Z,22.25
2022-12-18T17:37:05.923Z,20.85
2022-12-18T17:39:33.998Z,16.40
2022-12-18T17:42:01.674Z,17.95
2022-12-18T17:44:28.482Z,18.65
2022-12-18T17:46:55.701Z,18.73
2022-12-18T17:49:22.548Z,14.13
2022-12-18T17:51:49.384Z,19.75
2022-12-18T17:54:16.289Z,17.13
2022-12-18T17:56:43.297Z,17.90
2022-12-18T17:59:10.195Z,19.67
2022-12-18T18:01:43.741Z,19.10
2022-12-18T18:04:11.805Z,14.00
2022-12-18T18:06:39.076Z,18.15
2022-12-18T18:09:06.667Z,18.90
2022-12-18T18:12:05.204Z,19.95
2022-12-18T18:14:32.412Z,16.65
2022-12-18T18:17:04.108Z,17.95
2022-12-18T18:19:32.121Z,17.75
2022-12-18T18:21:58.859Z,17.35
2022-12-18T18:24:26.184Z,21.52
2022-12-18T18:26:53.171Z,20.08
2022-12-18T18:29:23.883Z,18.40
2022-12-18T18:31:53.587Z,19.70
2022-12-18T18:34:31.716Z,18.98
2022-12-18T18:36:58.793Z,18.20
2022-12-18T18:39:26.161Z,19.40
2022-12-18T18:41:52.875Z,19.83
2022-12-18T18:44:24.759Z,17.00
2022-12-18T18:46:55.500Z,19.63
2022-12-18T18:49:24.301Z,20.20
2022-12-18T18:51:51.106Z,17.58
2022-12-18T18:54:17.990Z,17.65
2022-12-18T18:57:19.027Z,21.45
2022-12-18T18:59:32.273Z,19.52
2022-12-18T19:02:00.775Z,21.00
2022-12-18T19:04:33.132Z,22.65
2022-12-18T19:07:00.178Z,18.98
2022-12-18T19:09:27.930Z,21.38
2022-12-18T19:12:14.637Z,22.90
2022-12-18T19:14:41.592Z,18.73
2022-12-18T19:17:08.850Z,21.17
2022-12-18T19:19:35.884Z,22.27
2022-12-18T19:22:02.789Z,23.88
2022-12-18T19:24:29.537Z,24.38
2022-12-18T19:26:58.100Z,21.13
2022-12-18T19:29:25.633Z,27.75
2022-12-18T19:31:53.003Z,24.77
2022-12-18T19:34:19.815Z,22.98
2022-12-18T19:36:46.758Z,19.00
2022-12-18T19:39:16.608Z,21.60
2022-12-18T19:41:43.694Z,22.88
2022-12-18T19:44:19.990Z,20.73
2022-12-18T19:46:50.861Z,22.90
2022-12-18T19:49:18.427Z,17.50
2022-12-18T19:51:45.626Z,22.17
2022-12-18T19:54:17.038Z,25.27
2022-12-18T19:56:44.316Z,21.60
2022-12-18T19:59:11.055Z,22.80
2022-12-18T20:01:37.987Z,24.30
2022-12-18T20:04:05.343Z,21.80
2022-12-18T20:06:46.236Z,20.95
2022-12-18T20:09:13.019Z,20.63
2022-12-18T20:11:42.178Z,24.27
2022-12-18T20:14:11.135Z,18.92
2022-12-18T20:16:38.361Z,21.38
2022-12-18T20:19:05.718Z,20.75
2022-12-18T20:21:32.565Z,23.23
2022-12-18T20:24:00.302Z,20.98
2022-12-18T20:26:27.194Z,18.88
2022-12-18T20:28:55.162Z,21.65
2022-12-18T20:31:22.680Z,22.00
2022-12-18T20:33:49.917Z,21.05
2022-12-18T20:36:22.577Z,23.25
2022-12-18T20:38:56.367Z,21.95
2022-12-18T20:41:24.954Z,20.95
2022-12-18T20:43:52.155Z,23.23
2022-12-18T20:46:19.295Z,21.40
2022-12-18T20:48:46.249Z,17.95
2022-12-18T20:51:16.311Z,21.48
2022-12-18T20:53:43.657Z,25.45
2022-12-18T20:56:21.904Z,21.45
2022-12-18T20:58:50.146Z,17.45
2022-12-18T21:01:20.759Z,16.70
2022-12-18T21:03:48.261Z,20.00
2022-12-18T21:06:16.953Z,20.70
2022-12-18T21:08:44.171Z,21.15
2022-12-18T21:11:49.024Z,19.00
2022-12-18T21:14:18.158Z,18.83
2022-12-18T21:16:45.669Z,19.00
2022-12-18T21:19:14.095Z,20.38
2022-12-18T21:21:41.395Z,15.93
2022-12-18T21:24:09.984Z,17.25
2022-12-18T21:26:43.393Z,18.42
2022-12-18T21:29:14.315Z,19.30
2022-12-18T21:31:41.632Z,18.77
2022-12-18T21:34:10.226Z,18.52
2022-12-18T21:36:37.079Z,21.30
2022-12-18T21:39:04.219Z,17.35
2022-12-18T21:41:49.429Z,21.33
2022-12-18T21:44:18.797Z,19.85
2022-12-18T21:46:54.531Z,21.77
2022-12-18T21:49:23.972Z,22.88
2022-12-18T21:51:52.721Z,19.33
2022-12-18T21:54:20.286Z,19.40
2022-12-18T21:56:57.982Z,18.00
2022-12-18T21:59:39.611Z,21.50
2022-12-18T22:02:11.025Z,21.15
2022-12-18T22:04:37.960Z,18.40
2022-12-18T22:07:06.250Z,20.00
2022-12-18T22:09:33.144Z,19.95
2022-12-18T22:12:00.570Z,21.23
2022-12-18T22:14:27.509Z,17.88
2022-12-18T22:16:56.385Z,19.63
2022-12-18T22:19:25.426Z,18.33
2022-12-18T22:21:52.844Z,21.65
2022-12-18T22:24:25.092Z,20.23
2022-12-18T22:27:01.693Z,18.10
2022-12-18T22:29:47.588Z,23.48
2022-12-18T22:32:21.430Z,20.25
2022-12-18T22:35:07.210Z,18.75
2022-12-18T22:37:36.996Z,23.33
2022-12-18T22:40:05.956Z,20.52
2022-12-18T22:42:34.003Z,20.17
2022-12-18T22:45:00.990Z,20.10
2022-12-18T22:47:30.007Z,20.65
2022-12-18T22:49:58.079Z,19.80
2022-12-18T22:52:25.302Z,23.00
2022-12-18T22:54:53.239Z,17.77
2022-12-18T22:57:21.891Z,17.50
2022-12-18T22:59:49.649Z,19.27
2022-12-18T23:02:18.150Z,22.02
2022-12-18T23:04:45.277Z,22.25
2022-12-18T23:07:12.594Z,17.50
2022-12-18T23:09:39.876Z,17.67
2022-12-18T23:12:07.155Z,20.15
2022-12-18T23:14:34.134Z,21.40
2022-12-18T23:17:00.996Z,20.05
2022-12-18T23:19:27.880Z,21.02
2022-12-18T23:21:57.748Z,19.52
2022-12-18T23:24:28.945Z,20.23
2022-12-18T23:26:59.343Z,20.25
2022-12-18T23:29:26.162Z,20.70
2022-12-18T23:31:53.018Z,19.73
2022-12-18T23:34:19.849Z,18.70
2022-12-18T23:36:47.478Z,19.63
2022-12-18T23:39:29.398Z,19.00
2022-12-18T23:41:59.536Z,22.45
2022-12-18T23:44:26.625Z,20.65
2022-12-18T23:46:53.510Z,21.70
2022-12-18T23:49:20.384Z,18.45
2022-12-18T23:51:47.120Z,16.35
2022-12-18T23:54:13.888Z,19.88
2022-12-18T23:56:40.760Z,21.52
2022-12-18T23:59:07.492Z,20.23
